sensor_id;sensor_type;location;lat;lon;timestamp;P1;durP1;ratioP1;P2;durP2;ratioP2
61840;SDS011;47773;53.174;6.614;2023-12-20T00:01:05;11.23;;;1.40;;
61840;SDS011;47773;53.174;6.614;2023-12-20T00:03:31;11.20;;;1.35;;
61840;SDS011;47773;53.174;6.614;2023-12-20T00:05:57;10.18;;;1.48;;
61840;SDS011;47773;53.174;6.614;2023-12-20T00:08:22;17.10;;;1.50;;
61840;SDS011;47773;53.174;6.614;2023-12-20T00:10:48;11.27;;;1.40;;
61840;SDS011;47773;53.174;6.614;2023-12-20T00:13:14;9.55;;;1.38;;
61840;SDS011;47773;53.174;6.614;2023-12-20T00:15:39;12.18;;;1.75;;
61840;SDS011;47773;53.174;6.614;2023-12-20T00:18:05;9.73;;;1.10;;
61840;SDS011;47773;53.174;6.614;2023-12-20T00:20:31;13.13;;;1.92;;
61840;SDS011;47773;53.174;6.614;2023-12-20T00:22:57;14.32;;;1.73;;
61840;SDS011;47773;53.174;6.614;2023-12-20T00:25:23;17.23;;;1.33;;
61840;SDS011;47773;53.174;6.614;2023-12-20T00:27:49;13.35;;;1.60;;
61840;SDS011;47773;53.174;6.614;2023-12-20T00:30:15;13.30;;;1.42;;
61840;SDS011;47773;53.174;6.614;2023-12-20T00:32:41;10.23;;;1.15;;
61840;SDS011;47773;53.174;6.614;2023-12-20T00:35:14;14.35;;;1.70;;
61840;SDS011;47773;53.174;6.614;2023-12-20T00:37:41;10.82;;;1.80;;
61840;SDS011;47773;53.174;6.614;2023-12-20T00:40:08;10.40;;;1.35;;
61840;SDS011;47773;53.174;6.614;2023-12-20T00:42:34;12.70;;;1.52;;
61840;SDS011;47773;53.174;6.614;2023-12-20T00:45:00;8.52;;;1.13;;
61840;SDS011;47773;53.174;6.614;2023-12-20T00:47:27;6.97;;;1.17;;
61840;SDS011;47773;53.174;6.614;2023-12-20T00:49:52;8.95;;;1.20;;
61840;SDS011;47773;53.174;6.614;2023-12-20T00:52:18;13.68;;;1.30;;
61840;SDS011;47773;53.174;6.614;2023-12-20T00:54:44;6.57;;;1.13;;
61840;SDS011;47773;53.174;6.614;2023-12-20T00:57:09;15.70;;;1.88;;
61840;SDS011;47773;53.174;6.614;2023-12-20T00:59:35;15.98;;;1.50;;
61840;SDS011;47773;53.174;6.614;2023-12-20T01:02:01;15.68;;;1.55;;
61840;SDS011;47773;53.174;6.614;2023-12-20T01:04:27;14.98;;;1.80;;
61840;SDS011;47773;53.174;6.614;2023-12-20T01:06:53;11.35;;;1.60;;
61840;SDS011;47773;53.174;6.614;2023-12-20T01:09:19;9.48;;;1.52;;
61840;SDS011;47773;53.174;6.614;2023-12-20T01:11:44;16.25;;;1.70;;
61840;SDS011;47773;53.174;6.614;2023-12-20T01:14:13;8.02;;;1.42;;
61840;SDS011;47773;53.174;6.614;2023-12-20T01:16:38;11.13;;;1.25;;
61840;SDS011;47773;53.174;6.614;2023-12-20T01:19:04;18.42;;;2.13;;
61840;SDS011;47773;53.174;6.614;2023-12-20T01:21:29;10.70;;;1.50;;
61840;SDS011;47773;53.174;6.614;2023-12-20T01:23:55;9.30;;;1.55;;
61840;SDS011;47773;53.174;6.614;2023-12-20T01:26:21;13.73;;;1.58;;
61840;SDS011;47773;53.174;6.614;2023-12-20T01:28:46;13.52;;;1.30;;
61840;SDS011;47773;53.174;6.614;2023-12-20T01:31:12;16.48;;;1.65;;
61840;SDS011;47773;53.174;6.614;2023-12-20T01:33:38;8.45;;;1.30;;
61840;SDS011;47773;53.174;6.614;2023-12-20T01:36:04;15.70;;;1.85;;
61840;SDS011;47773;53.174;6.614;2023-12-20T01:38:29;11.65;;;1.58;;
61840;SDS011;47773;53.174;6.614;2023-12-20T01:40:55;13.40;;;2.13;;
61840;SDS011;47773;53.174;6.614;2023-12-20T01:43:21;10.20;;;1.92;;
61840;SDS011;47773;53.174;6.614;2023-12-20T01:45:46;18.65;;;1.73;;
61840;SDS011;47773;53.174;6.614;2023-12-20T01:48:13;16.55;;;1.77;;
61840;SDS011;47773;53.174;6.614;2023-12-20T01:50:41;13.18;;;1.42;;
61840;SDS011;47773;53.174;6.614;2023-12-20T01:53:08;12.38;;;1.40;;
61840;SDS011;47773;53.174;6.614;2023-12-20T01:55:37;10.73;;;1.40;;
61840;SDS011;47773;53.174;6.614;2023-12-20T01:58:05;12.18;;;1.30;;
61840;SDS011;47773;53.174;6.614;2023-12-20T02:00:32;9.45;;;1.98;;
61840;SDS011;47773;53.174;6.614;2023-12-20T02:03:00;9.25;;;1.20;;
61840;SDS011;47773;53.174;6.614;2023-12-20T02:05:27;9.50;;;1.40;;
61840;SDS011;47773;53.174;6.614;2023-12-20T02:07:53;16.80;;;1.42;;
61840;SDS011;47773;53.174;6.614;2023-12-20T02:10:19;14.27;;;1.63;;
61840;SDS011;47773;53.174;6.614;2023-12-20T02:12:45;11.13;;;1.30;;
61840;SDS011;47773;53.174;6.614;2023-12-20T02:15:11;10.88;;;1.20;;
61840;SDS011;47773;53.174;6.614;2023-12-20T02:17:37;14.38;;;1.90;;
61840;SDS011;47773;53.174;6.614;2023-12-20T02:20:04;10.90;;;1.65;;
61840;SDS011;47773;53.174;6.614;2023-12-20T02:22:31;10.60;;;1.20;;
61840;SDS011;47773;53.174;6.614;2023-12-20T02:24:57;11.88;;;1.52;;
61840;SDS011;47773;53.174;6.614;2023-12-20T02:27:22;12.98;;;2.00;;
61840;SDS011;47773;53.174;6.614;2023-12-20T02:29:48;13.93;;;2.03;;
61840;SDS011;47773;53.174;6.614;2023-12-20T02:32:15;7.75;;;1.42;;
61840;SDS011;47773;53.174;6.614;2023-12-20T02:34:42;13.52;;;1.75;;
61840;SDS011;47773;53.174;6.614;2023-12-20T02:37:08;20.52;;;2.08;;
61840;SDS011;47773;53.174;6.614;2023-12-20T02:39:34;21.35;;;2.47;;
61840;SDS011;47773;53.174;6.614;2023-12-20T02:42:00;19.15;;;2.58;;
61840;SDS011;47773;53.174;6.614;2023-12-20T02:44:25;19.15;;;3.20;;
61840;SDS011;47773;53.174;6.614;2023-12-20T02:46:51;19.58;;;2.47;;
61840;SDS011;47773;53.174;6.614;2023-12-20T02:49:16;21.30;;;2.65;;
61840;SDS011;47773;53.174;6.614;2023-12-20T02:51:42;16.23;;;1.63;;
61840;SDS011;47773;53.174;6.614;2023-12-20T02:54:08;19.23;;;2.20;;
61840;SDS011;47773;53.174;6.614;2023-12-20T02:56:33;23.60;;;3.38;;
61840;SDS011;47773;53.174;6.614;2023-12-20T02:58:59;19.98;;;2.67;;
61840;SDS011;47773;53.174;6.614;2023-12-20T03:01:25;18.85;;;2.50;;
61840;SDS011;47773;53.174;6.614;2023-12-20T03:03:51;15.63;;;2.53;;
61840;SDS011;47773;53.174;6.614;2023-12-20T03:06:17;18.23;;;2.83;;
61840;SDS011;47773;53.174;6.614;2023-12-20T03:08:44;24.80;;;2.58;;
61840;SDS011;47773;53.174;6.614;2023-12-20T03:11:09;19.30;;;2.65;;
61840;SDS011;47773;53.174;6.614;2023-12-20T03:13:35;24.20;;;2.38;;
61840;SDS011;47773;53.174;6.614;2023-12-20T03:16:01;23.05;;;2.67;;
61840;SDS011;47773;53.174;6.614;2023-12-20T03:18:32;18.35;;;2.45;;
61840;SDS011;47773;53.174;6.614;2023-12-20T03:20:58;20.95;;;2.53;;
61840;SDS011;47773;53.174;6.614;2023-12-20T03:23:23;28.63;;;2.95;;
61840;SDS011;47773;53.174;6.614;2023-12-20T03:25:49;18.73;;;2.40;;
61840;SDS011;47773;53.174;6.614;2023-12-20T03:28:15;20.55;;;3.13;;
61840;SDS011;47773;53.174;6.614;2023-12-20T03:30:41;17.73;;;3.45;;
61840;SDS011;47773;53.174;6.614;2023-12-20T03:33:06;20.63;;;2.30;;
61840;SDS011;47773;53.174;6.614;2023-12-20T03:35:32;18.05;;;2.40;;
61840;SDS011;47773;53.174;6.614;2023-12-20T03:37:58;24.10;;;2.92;;
61840;SDS011;47773;53.174;6.614;2023-12-20T03:40:25;24.88;;;3.42;;
61840;SDS011;47773;53.174;6.614;2023-12-20T03:42:51;22.08;;;2.97;;
61840;SDS011;47773;53.174;6.614;2023-12-20T03:45:16;30.42;;;3.17;;
61840;SDS011;47773;53.174;6.614;2023-12-20T03:47:42;18.52;;;2.42;;
61840;SDS011;47773;53.174;6.614;2023-12-20T03:50:08;27.45;;;3.05;;
61840;SDS011;47773;53.174;6.614;2023-12-20T03:52:33;18.75;;;2.70;;
61840;SDS011;47773;53.174;6.614;2023-12-20T03:54:59;24.95;;;3.10;;
61840;SDS011;47773;53.174;6.614;2023-12-20T03:57:24;18.85;;;2.80;;
61840;SDS011;47773;53.174;6.614;2023-12-20T03:59:50;24.35;;;2.35;;
61840;SDS011;47773;53.174;6.614;2023-12-20T04:02:16;21.83;;;2.75;;
61840;SDS011;47773;53.174;6.614;2023-12-20T04:04:43;23.70;;;3.33;;
61840;SDS011;47773;53.174;6.614;2023-12-20T04:07:08;18.88;;;2.63;;
61840;SDS011;47773;53.174;6.614;2023-12-20T04:09:34;22.10;;;2.53;;
61840;SDS011;47773;53.174;6.614;2023-12-20T04:12:00;23.50;;;3.22;;
61840;SDS011;47773;53.174;6.614;2023-12-20T04:14:25;31.90;;;3.17;;
61840;SDS011;47773;53.174;6.614;2023-12-20T04:16:51;20.40;;;2.28;;
61840;SDS011;47773;53.174;6.614;2023-12-20T04:19:17;17.20;;;2.47;;
61840;SDS011;47773;53.174;6.614;2023-12-20T04:21:43;27.10;;;3.40;;
61840;SDS011;47773;53.174;6.614;2023-12-20T04:24:08;22.63;;;2.95;;
61840;SDS011;47773;53.174;6.614;2023-12-20T04:26:34;21.73;;;2.83;;
61840;SDS011;47773;53.174;6.614;2023-12-20T04:29:00;19.65;;;2.75;;
61840;SDS011;47773;53.174;6.614;2023-12-20T04:31:25;16.98;;;2.55;;
61840;SDS011;47773;53.174;6.614;2023-12-20T04:33:51;20.75;;;3.88;;
61840;SDS011;47773;53.174;6.614;2023-12-20T04:36:16;23.17;;;2.85;;
61840;SDS011;47773;53.174;6.614;2023-12-20T04:38:42;16.67;;;2.45;;
61840;SDS011;47773;53.174;6.614;2023-12-20T04:41:08;30.73;;;3.17;;
61840;SDS011;47773;53.174;6.614;2023-12-20T04:43:33;19.13;;;2.55;;
61840;SDS011;47773;53.174;6.614;2023-12-20T04:45:59;24.13;;;3.08;;
61840;SDS011;47773;53.174;6.614;2023-12-20T04:48:25;22.70;;;2.20;;
61840;SDS011;47773;53.174;6.614;2023-12-20T04:50:50;21.02;;;2.58;;
61840;SDS011;47773;53.174;6.614;2023-12-20T04:53:16;23.48;;;3.28;;
61840;SDS011;47773;53.174;6.614;2023-12-20T04:55:41;23.05;;;3.95;;
61840;SDS011;47773;53.174;6.614;2023-12-20T04:58:07;22.45;;;2.85;;
61840;SDS011;47773;53.174;6.614;2023-12-20T05:00:33;25.73;;;3.47;;
61840;SDS011;47773;53.174;6.614;2023-12-20T05:02:58;20.42;;;2.90;;
61840;SDS011;47773;53.174;6.614;2023-12-20T05:05:24;21.05;;;2.83;;
61840;SDS011;47773;53.174;6.614;2023-12-20T05:07:49;19.23;;;2.75;;
61840;SDS011;47773;53.174;6.614;2023-12-20T05:10:15;18.42;;;2.50;;
61840;SDS011;47773;53.174;6.614;2023-12-20T05:12:41;19.85;;;2.95;;
61840;SDS011;47773;53.174;6.614;2023-12-20T05:15:07;24.08;;;2.78;;
61840;SDS011;47773;53.174;6.614;2023-12-20T05:17:34;20.42;;;2.67;;
61840;SDS011;47773;53.174;6.614;2023-12-20T05:19:59;27.08;;;3.05;;
61840;SDS011;47773;53.174;6.614;2023-12-20T05:22:25;22.92;;;2.30;;
61840;SDS011;47773;53.174;6.614;2023-12-20T05:24:52;22.55;;;3.22;;
61840;SDS011;47773;53.174;6.614;2023-12-20T05:27:18;18.33;;;2.80;;
61840;SDS011;47773;53.174;6.614;2023-12-20T05:29:44;21.48;;;2.80;;
61840;SDS011;47773;53.174;6.614;2023-12-20T05:32:09;25.65;;;3.10;;
61840;SDS011;47773;53.174;6.614;2023-12-20T05:34:35;19.08;;;3.08;;
61840;SDS011;47773;53.174;6.614;2023-12-20T05:37:01;19.35;;;2.25;;
61840;SDS011;47773;53.174;6.614;2023-12-20T05:39:27;29.35;;;3.15;;
61840;SDS011;47773;53.174;6.614;2023-12-20T05:41:53;25.58;;;2.75;;
61840;SDS011;47773;53.174;6.614;2023-12-20T05:44:18;18.88;;;2.50;;
61840;SDS011;47773;53.174;6.614;2023-12-20T05:46:44;24.90;;;2.55;;
61840;SDS011;47773;53.174;6.614;2023-12-20T05:49:10;24.42;;;3.08;;
61840;SDS011;47773;53.174;6.614;2023-12-20T05:51:36;29.27;;;3.38;;
61840;SDS011;47773;53.174;6.614;2023-12-20T05:54:01;29.60;;;3.17;;
61840;SDS011;47773;53.174;6.614;2023-12-20T05:56:27;25.05;;;3.35;;
61840;SDS011;47773;53.174;6.614;2023-12-20T05:58:52;20.00;;;2.78;;
61840;SDS011;47773;53.174;6.614;2023-12-20T06:01:18;20.30;;;2.70;;
61840;SDS011;47773;53.174;6.614;2023-12-20T06:03:44;26.38;;;3.10;;
61840;SDS011;47773;53.174;6.614;2023-12-20T06:06:11;23.63;;;3.40;;
61840;SDS011;47773;53.174;6.614;2023-12-20T06:08:38;22.77;;;2.88;;
61840;SDS011;47773;53.174;6.614;2023-12-20T06:11:04;25.27;;;2.97;;
61840;SDS011;47773;53.174;6.614;2023-12-20T06:13:30;25.15;;;3.25;;
61840;SDS011;47773;53.174;6.614;2023-12-20T06:15:56;33.00;;;4.40;;
61840;SDS011;47773;53.174;6.614;2023-12-20T06:18:22;18.85;;;2.72;;
61840;SDS011;47773;53.174;6.614;2023-12-20T06:20:48;23.05;;;3.25;;
61840;SDS011;47773;53.174;6.614;2023-12-20T06:23:13;23.77;;;3.15;;
61840;SDS011;47773;53.174;6.614;2023-12-20T06:25:39;20.60;;;2.83;;
61840;SDS011;47773;53.174;6.614;2023-12-20T06:28:05;19.15;;;3.50;;
61840;SDS011;47773;53.174;6.614;2023-12-20T06:30:31;27.17;;;3.50;;
61840;SDS011;47773;53.174;6.614;2023-12-20T06:32:57;24.17;;;2.83;;
61840;SDS011;47773;53.174;6.614;2023-12-20T06:35:23;23.77;;;3.65;;
61840;SDS011;47773;53.174;6.614;2023-12-20T06:37:49;16.08;;;2.40;;
61840;SDS011;47773;53.174;6.614;2023-12-20T06:40:15;18.70;;;3.47;;
61840;SDS011;47773;53.174;6.614;2023-12-20T06:42:41;20.75;;;2.90;;
61840;SDS011;47773;53.174;6.614;2023-12-20T06:45:07;22.45;;;3.35;;
61840;SDS011;47773;53.174;6.614;2023-12-20T06:47:33;20.88;;;3.25;;
61840;SDS011;47773;53.174;6.614;2023-12-20T06:49:58;17.27;;;2.80;;
61840;SDS011;47773;53.174;6.614;2023-12-20T06:52:24;19.85;;;2.83;;
61840;SDS011;47773;53.174;6.614;2023-12-20T06:54:50;19.17;;;2.80;;
61840;SDS011;47773;53.174;6.614;2023-12-20T06:57:16;27.23;;;3.38;;
61840;SDS011;47773;53.174;6.614;2023-12-20T06:59:41;19.20;;;2.70;;
61840;SDS011;47773;53.174;6.614;2023-12-20T07:02:08;25.08;;;2.72;;
61840;SDS011;47773;53.174;6.614;2023-12-20T07:04:34;24.08;;;3.00;;
61840;SDS011;47773;53.174;6.614;2023-12-20T07:07:03;23.52;;;2.92;;
61840;SDS011;47773;53.174;6.614;2023-12-20T07:09:29;23.73;;;2.90;;
61840;SDS011;47773;53.174;6.614;2023-12-20T07:11:55;31.25;;;3.35;;
61840;SDS011;47773;53.174;6.614;2023-12-20T07:14:20;14.02;;;2.17;;
61840;SDS011;47773;53.174;6.614;2023-12-20T07:16:46;27.90;;;2.70;;
61840;SDS011;47773;53.174;6.614;2023-12-20T07:19:12;14.93;;;2.60;;
61840;SDS011;47773;53.174;6.614;2023-12-20T07:21:38;16.63;;;2.53;;
61840;SDS011;47773;53.174;6.614;2023-12-20T07:24:03;16.77;;;3.20;;
61840;SDS011;47773;53.174;6.614;2023-12-20T07:26:29;25.17;;;3.63;;
61840;SDS011;47773;53.174;6.614;2023-12-20T07:28:55;30.88;;;4.35;;
61840;SDS011;47773;53.174;6.614;2023-12-20T07:31:21;18.25;;;2.83;;
61840;SDS011;47773;53.174;6.614;2023-12-20T07:33:46;23.00;;;3.53;;
61840;SDS011;47773;53.174;6.614;2023-12-20T07:36:12;25.40;;;3.30;;
61840;SDS011;47773;53.174;6.614;2023-12-20T07:38:38;20.05;;;2.88;;
61840;SDS011;47773;53.174;6.614;2023-12-20T07:41:04;23.90;;;3.08;;
61840;SDS011;47773;53.174;6.614;2023-12-20T07:43:30;23.83;;;3.00;;
61840;SDS011;47773;53.174;6.614;2023-12-20T07:45:55;22.40;;;3.67;;
61840;SDS011;47773;53.174;6.614;2023-12-20T07:48:21;22.77;;;3.03;;
61840;SDS011;47773;53.174;6.614;2023-12-20T07:50:47;18.27;;;2.78;;
61840;SDS011;47773;53.174;6.614;2023-12-20T07:53:12;20.17;;;3.03;;
61840;SDS011;47773;53.174;6.614;2023-12-20T07:55:38;26.08;;;3.28;;
61840;SDS011;47773;53.174;6.614;2023-12-20T07:58:04;18.80;;;3.17;;
61840;SDS011;47773;53.174;6.614;2023-12-20T08:00:30;18.75;;;3.10;;
61840;SDS011;47773;53.174;6.614;2023-12-20T08:02:55;19.05;;;2.92;;
61840;SDS011;47773;53.174;6.614;2023-12-20T08:05:21;22.10;;;2.88;;
61840;SDS011;47773;53.174;6.614;2023-12-20T08:07:47;18.67;;;2.55;;
61840;SDS011;47773;53.174;6.614;2023-12-20T08:10:13;24.17;;;3.05;;
61840;SDS011;47773;53.174;6.614;2023-12-20T08:12:39;18.02;;;2.88;;
61840;SDS011;47773;53.174;6.614;2023-12-20T08:15:05;24.58;;;3.05;;
61840;SDS011;47773;53.174;6.614;2023-12-20T08:17:31;18.15;;;2.38;;
61840;SDS011;47773;53.174;6.614;2023-12-20T08:19:57;19.73;;;2.80;;
61840;SDS011;47773;53.174;6.614;2023-12-20T08:22:22;19.77;;;2.13;;
61840;SDS011;47773;53.174;6.614;2023-12-20T08:24:48;18.13;;;2.80;;
61840;SDS011;47773;53.174;6.614;2023-12-20T08:27:14;19.63;;;2.80;;
61840;SDS011;47773;53.174;6.614;2023-12-20T08:29:40;21.23;;;3.10;;
61840;SDS011;47773;53.174;6.614;2023-12-20T08:32:05;22.42;;;3.08;;
61840;SDS011;47773;53.174;6.614;2023-12-20T08:34:31;13.50;;;2.30;;
61840;SDS011;47773;53.174;6.614;2023-12-20T08:36:57;16.20;;;2.53;;
61840;SDS011;47773;53.174;6.614;2023-12-20T08:39:22;11.55;;;1.95;;
61840;SDS011;47773;53.174;6.614;2023-12-20T08:41:48;19.42;;;2.58;;
61840;SDS011;47773;53.174;6.614;2023-12-20T08:44:13;24.38;;;3.25;;
61840;SDS011;47773;53.174;6.614;2023-12-20T08:46:39;25.10;;;3.08;;
61840;SDS011;47773;53.174;6.614;2023-12-20T08:49:05;19.60;;;3.10;;
61840;SDS011;47773;53.174;6.614;2023-12-20T08:51:30;15.40;;;1.88;;
61840;SDS011;47773;53.174;6.614;2023-12-20T08:53:56;7.78;;;1.08;;
61840;SDS011;47773;53.174;6.614;2023-12-20T08:56:22;7.47;;;0.80;;
61840;SDS011;47773;53.174;6.614;2023-12-20T08:58:47;6.75;;;0.77;;
61840;SDS011;47773;53.174;6.614;2023-12-20T09:01:14;6.97;;;0.80;;
61840;SDS011;47773;53.174;6.614;2023-12-20T09:03:40;7.05;;;1.08;;
61840;SDS011;47773;53.174;6.614;2023-12-20T09:06:06;7.60;;;1.10;;
61840;SDS011;47773;53.174;6.614;2023-12-20T09:08:31;7.85;;;0.98;;
61840;SDS011;47773;53.174;6.614;2023-12-20T09:10:58;8.75;;;1.20;;
61840;SDS011;47773;53.174;6.614;2023-12-20T09:13:23;7.68;;;1.25;;
61840;SDS011;47773;53.174;6.614;2023-12-20T09:15:54;6.03;;;1.20;;
61840;SDS011;47773;53.174;6.614;2023-12-20T09:18:20;9.48;;;1.35;;
61840;SDS011;47773;53.174;6.614;2023-12-20T09:20:46;4.53;;;1.00;;
61840;SDS011;47773;53.174;6.614;2023-12-20T09:23:12;11.38;;;1.20;;
61840;SDS011;47773;53.174;6.614;2023-12-20T09:25:37;12.05;;;0.90;;
61840;SDS011;47773;53.174;6.614;2023-12-20T09:28:03;10.25;;;1.50;;
61840;SDS011;47773;53.174;6.614;2023-12-20T09:30:29;12.93;;;1.35;;
61840;SDS011;47773;53.174;6.614;2023-12-20T09:32:55;5.28;;;0.68;;
61840;SDS011;47773;53.174;6.614;2023-12-20T09:35:20;6.40;;;0.73;;
61840;SDS011;47773;53.174;6.614;2023-12-20T09:37:46;9.95;;;0.68;;
61840;SDS011;47773;53.174;6.614;2023-12-20T09:40:12;7.57;;;0.88;;
61840;SDS011;47773;53.174;6.614;2023-12-20T09:45:21;5.10;;;0.73;;
61840;SDS011;47773;53.174;6.614;2023-12-20T09:47:47;4.13;;;0.60;;
61840;SDS011;47773;53.174;6.614;2023-12-20T09:50:15;4.00;;;0.77;;
61840;SDS011;47773;53.174;6.614;2023-12-20T09:52:42;7.07;;;0.80;;
61840;SDS011;47773;53.174;6.614;2023-12-20T09:55:10;5.80;;;0.82;;
61840;SDS011;47773;53.174;6.614;2023-12-20T09:57:35;7.47;;;0.90;;
61840;SDS011;47773;53.174;6.614;2023-12-20T10:00:01;6.22;;;0.98;;
61840;SDS011;47773;53.174;6.614;2023-12-20T10:02:28;7.63;;;0.88;;
61840;SDS011;47773;53.174;6.614;2023-12-20T10:04:57;5.90;;;0.73;;
61840;SDS011;47773;53.174;6.614;2023-12-20T10:07:23;7.15;;;0.70;;
61840;SDS011;47773;53.174;6.614;2023-12-20T10:09:49;5.05;;;0.90;;
61840;SDS011;47773;53.174;6.614;2023-12-20T10:12:19;10.88;;;1.05;;
61840;SDS011;47773;53.174;6.614;2023-12-20T10:14:44;9.50;;;1.20;;
61840;SDS011;47773;53.174;6.614;2023-12-20T10:17:10;10.48;;;0.85;;
61840;SDS011;47773;53.174;6.614;2023-12-20T10:19:36;9.50;;;1.20;;
61840;SDS011;47773;53.174;6.614;2023-12-20T10:22:04;9.52;;;1.20;;
61840;SDS011;47773;53.174;6.614;2023-12-20T10:24:30;7.55;;;0.93;;
61840;SDS011;47773;53.174;6.614;2023-12-20T10:27:02;8.02;;;0.93;;
61840;SDS011;47773;53.174;6.614;2023-12-20T10:29:32;8.00;;;0.80;;
61840;SDS011;47773;53.174;6.614;2023-12-20T10:34:53;6.60;;;0.88;;
61840;SDS011;47773;53.174;6.614;2023-12-20T10:37:20;8.30;;;0.95;;
61840;SDS011;47773;53.174;6.614;2023-12-20T10:39:49;9.35;;;1.10;;
61840;SDS011;47773;53.174;6.614;2023-12-20T10:42:20;11.23;;;1.38;;
61840;SDS011;47773;53.174;6.614;2023-12-20T10:44:47;7.35;;;0.73;;
61840;SDS011;47773;53.174;6.614;2023-12-20T10:47:14;10.15;;;1.25;;
61840;SDS011;47773;53.174;6.614;2023-12-20T10:49:41;9.02;;;1.30;;
61840;SDS011;47773;53.174;6.614;2023-12-20T10:52:07;12.52;;;1.50;;
61840;SDS011;47773;53.174;6.614;2023-12-20T10:54:36;10.57;;;1.17;;
61840;SDS011;47773;53.174;6.614;2023-12-20T10:57:02;13.93;;;2.00;;
61840;SDS011;47773;53.174;6.614;2023-12-20T10:59:30;15.05;;;1.67;;
61840;SDS011;47773;53.174;6.614;2023-12-20T11:01:58;14.95;;;1.42;;
61840;SDS011;47773;53.174;6.614;2023-12-20T11:04:44;9.20;;;0.95;;
61840;SDS011;47773;53.174;6.614;2023-12-20T11:10:03;11.68;;;1.75;;
61840;SDS011;47773;53.174;6.614;2023-12-20T11:12:53;9.30;;;1.38;;
61840;SDS011;47773;53.174;6.614;2023-12-20T11:15:24;19.77;;;1.50;;
61840;SDS011;47773;53.174;6.614;2023-12-20T11:17:55;9.32;;;1.58;;
61840;SDS011;47773;53.174;6.614;2023-12-20T11:20:35;13.90;;;1.48;;
61840;SDS011;47773;53.174;6.614;2023-12-20T11:23:02;9.85;;;1.33;;
61840;SDS011;47773;53.174;6.614;2023-12-20T11:25:27;10.93;;;1.70;;
61840;SDS011;47773;53.174;6.614;2023-12-20T11:28:12;11.70;;;1.27;;
61840;SDS011;47773;53.174;6.614;2023-12-20T11:30:43;14.38;;;1.48;;
61840;SDS011;47773;53.174;6.614;2023-12-20T11:33:12;13.48;;;1.70;;
61840;SDS011;47773;53.174;6.614;2023-12-20T11:35:39;18.00;;;1.90;;
61840;SDS011;47773;53.174;6.614;2023-12-20T11:38:09;8.40;;;1.40;;
61840;SDS011;47773;53.174;6.614;2023-12-20T11:40:35;14.88;;;1.70;;
61840;SDS011;47773;53.174;6.614;2023-12-20T11:43:02;13.98;;;1.48;;
61840;SDS011;47773;53.174;6.614;2023-12-20T11:45:28;13.60;;;1.50;;
61840;SDS011;47773;53.174;6.614;2023-12-20T11:47:54;15.23;;;1.77;;
61840;SDS011;47773;53.174;6.614;2023-12-20T11:50:22;14.00;;;2.20;;
61840;SDS011;47773;53.174;6.614;2023-12-20T11:52:49;16.27;;;1.90;;
61840;SDS011;47773;53.174;6.614;2023-12-20T11:55:16;17.63;;;1.75;;
61840;SDS011;47773;53.174;6.614;2023-12-20T11:57:42;14.63;;;2.42;;
61840;SDS011;47773;53.174;6.614;2023-12-20T12:00:09;16.35;;;1.92;;
61840;SDS011;47773;53.174;6.614;2023-12-20T12:02:35;13.18;;;2.03;;
61840;SDS011;47773;53.174;6.614;2023-12-20T12:05:00;19.10;;;1.70;;
61840;SDS011;47773;53.174;6.614;2023-12-20T12:07:26;16.30;;;1.80;;
61840;SDS011;47773;53.174;6.614;2023-12-20T12:09:52;18.88;;;2.00;;
61840;SDS011;47773;53.174;6.614;2023-12-20T12:12:18;13.77;;;1.85;;
61840;SDS011;47773;53.174;6.614;2023-12-20T12:14:45;18.83;;;2.72;;
61840;SDS011;47773;53.174;6.614;2023-12-20T12:17:11;19.23;;;1.83;;
61840;SDS011;47773;53.174;6.614;2023-12-20T12:19:40;12.60;;;1.30;;
61840;SDS011;47773;53.174;6.614;2023-12-20T12:24:45;11.55;;;1.60;;
61840;SDS011;47773;53.174;6.614;2023-12-20T12:27:15;13.88;;;1.48;;
61840;SDS011;47773;53.174;6.614;2023-12-20T12:29:41;15.52;;;1.70;;
61840;SDS011;47773;53.174;6.614;2023-12-20T12:32:29;8.77;;;1.23;;
61840;SDS011;47773;53.174;6.614;2023-12-20T12:34:54;10.32;;;1.70;;
61840;SDS011;47773;53.174;6.614;2023-12-20T12:37:20;13.88;;;1.88;;
61840;SDS011;47773;53.174;6.614;2023-12-20T12:39:48;16.42;;;1.90;;
61840;SDS011;47773;53.174;6.614;2023-12-20T12:42:14;13.63;;;1.48;;
61840;SDS011;47773;53.174;6.614;2023-12-20T12:44:40;10.43;;;1.50;;
61840;SDS011;47773;53.174;6.614;2023-12-20T12:47:06;13.27;;;1.50;;
61840;SDS011;47773;53.174;6.614;2023-12-20T12:49:33;17.27;;;1.90;;
61840;SDS011;47773;53.174;6.614;2023-12-20T12:51:58;15.05;;;1.48;;
61840;SDS011;47773;53.174;6.614;2023-12-20T12:54:24;13.57;;;1.17;;
61840;SDS011;47773;53.174;6.614;2023-12-20T12:56:49;13.18;;;1.90;;
61840;SDS011;47773;53.174;6.614;2023-12-20T12:59:17;10.98;;;1.50;;
61840;SDS011;47773;53.174;6.614;2023-12-20T13:01:43;9.85;;;1.73;;
61840;SDS011;47773;53.174;6.614;2023-12-20T13:04:09;12.43;;;1.85;;
61840;SDS011;47773;53.174;6.614;2023-12-20T13:06:38;15.02;;;1.77;;
61840;SDS011;47773;53.174;6.614;2023-12-20T13:09:06;10.25;;;1.45;;
61840;SDS011;47773;53.174;6.614;2023-12-20T13:11:32;11.05;;;1.80;;
61840;SDS011;47773;53.174;6.614;2023-12-20T13:13:58;18.00;;;2.33;;
61840;SDS011;47773;53.174;6.614;2023-12-20T13:16:24;10.02;;;1.50;;
61840;SDS011;47773;53.174;6.614;2023-12-20T13:18:49;12.50;;;1.63;;
61840;SDS011;47773;53.174;6.614;2023-12-20T13:21:15;6.72;;;1.13;;
61840;SDS011;47773;53.174;6.614;2023-12-20T13:23:42;17.92;;;2.30;;
61840;SDS011;47773;53.174;6.614;2023-12-20T13:26:07;15.20;;;1.60;;
61840;SDS011;47773;53.174;6.614;2023-12-20T13:28:33;11.00;;;1.65;;
61840;SDS011;47773;53.174;6.614;2023-12-20T13:30:59;17.00;;;2.03;;
61840;SDS011;47773;53.174;6.614;2023-12-20T13:33:25;12.52;;;1.65;;
61840;SDS011;47773;53.174;6.614;2023-12-20T13:35:50;15.82;;;1.90;;
61840;SDS011;47773;53.174;6.614;2023-12-20T13:38:16;11.70;;;1.50;;
61840;SDS011;47773;53.174;6.614;2023-12-20T13:40:42;10.68;;;1.67;;
61840;SDS011;47773;53.174;6.614;2023-12-20T13:43:08;13.63;;;1.30;;
61840;SDS011;47773;53.174;6.614;2023-12-20T13:45:36;15.55;;;1.75;;
61840;SDS011;47773;53.174;6.614;2023-12-20T13:48:02;9.70;;;1.25;;
61840;SDS011;47773;53.174;6.614;2023-12-20T13:50:28;9.75;;;1.33;;
61840;SDS011;47773;53.174;6.614;2023-12-20T13:52:54;9.35;;;1.10;;
61840;SDS011;47773;53.174;6.614;2023-12-20T13:55:19;13.15;;;1.60;;
61840;SDS011;47773;53.174;6.614;2023-12-20T13:57:50;6.78;;;1.10;;
61840;SDS011;47773;53.174;6.614;2023-12-20T14:00:16;6.93;;;1.15;;
61840;SDS011;47773;53.174;6.614;2023-12-20T14:02:42;7.60;;;1.30;;
61840;SDS011;47773;53.174;6.614;2023-12-20T14:05:08;10.15;;;1.27;;
61840;SDS011;47773;53.174;6.614;2023-12-20T14:07:34;9.35;;;1.65;;
61840;SDS011;47773;53.174;6.614;2023-12-20T14:10:00;5.97;;;0.80;;
61840;SDS011;47773;53.174;6.614;2023-12-20T14:12:26;10.35;;;1.30;;
61840;SDS011;47773;53.174;6.614;2023-12-20T14:14:51;8.48;;;1.10;;
61840;SDS011;47773;53.174;6.614;2023-12-20T14:17:17;12.13;;;1.30;;
61840;SDS011;47773;53.174;6.614;2023-12-20T14:19:43;6.38;;;1.10;;
61840;SDS011;47773;53.174;6.614;2023-12-20T14:22:09;4.85;;;0.93;;
61840;SDS011;47773;53.174;6.614;2023-12-20T14:24:35;9.65;;;1.20;;
61840;SDS011;47773;53.174;6.614;2023-12-20T14:27:01;8.75;;;1.10;;
61840;SDS011;47773;53.174;6.614;2023-12-20T14:29:27;7.05;;;1.20;;
61840;SDS011;47773;53.174;6.614;2023-12-20T14:31:52;7.10;;;1.00;;
61840;SDS011;47773;53.174;6.614;2023-12-20T14:34:18;6.55;;;0.85;;
61840;SDS011;47773;53.174;6.614;2023-12-20T14:36:44;6.20;;;0.82;;
61840;SDS011;47773;53.174;6.614;2023-12-20T14:39:09;11.73;;;1.08;;
61840;SDS011;47773;53.174;6.614;2023-12-20T14:41:38;7.95;;;0.90;;
61840;SDS011;47773;53.174;6.614;2023-12-20T14:44:05;8.88;;;1.00;;